sensor_id;sensor_type;location;lat;lon;timestamp;P1;durP1;ratioP1;P2;durP2;ratioP2
44764;SDS011;30484;52.382;5.260;2023-07-30T00:00:29;27.60;;;4.85;;
44764;SDS011;30484;52.382;5.260;2023-07-30T00:02:58;32.92;;;5.55;;
44764;SDS011;30484;52.382;5.260;2023-07-30T00:05:28;27.33;;;4.90;;
44764;SDS011;30484;52.382;5.260;2023-07-30T00:07:57;23.48;;;4.65;;
44764;SDS011;30484;52.382;5.260;2023-07-30T00:10:25;27.67;;;5.53;;
44764;SDS011;30484;52.382;5.260;2023-07-30T00:12:53;26.92;;;4.68;;
44764;SDS011;30484;52.382;5.260;2023-07-30T00:15:22;29.52;;;4.63;;
44764;SDS011;30484;52.382;5.260;2023-07-30T00:17:50;33.67;;;5.22;;
44764;SDS011;30484;52.382;5.260;2023-07-30T00:20:19;29.33;;;4.55;;
44764;SDS011;30484;52.382;5.260;2023-07-30T00:22:49;39.63;;;5.40;;
44764;SDS011;30484;52.382;5.260;2023-07-30T00:25:17;23.38;;;4.85;;
44764;SDS011;30484;52.382;5.260;2023-07-30T00:27:45;35.28;;;5.25;;
44764;SDS011;30484;52.382;5.260;2023-07-30T00:30:14;36.08;;;5.05;;
44764;SDS011;30484;52.382;5.260;2023-07-30T00:32:42;31.08;;;4.53;;
44764;SDS011;30484;52.382;5.260;2023-07-30T00:35:11;31.67;;;5.18;;
44764;SDS011;30484;52.382;5.260;2023-07-30T00:37:40;32.75;;;5.15;;
44764;SDS011;30484;52.382;5.260;2023-07-30T00:40:10;37.88;;;5.38;;
44764;SDS011;30484;52.382;5.260;2023-07-30T00:42:40;31.33;;;4.43;;
44764;SDS011;30484;52.382;5.260;2023-07-30T00:45:09;27.23;;;4.55;;
44764;SDS011;30484;52.382;5.260;2023-07-30T00:47:38;29.05;;;4.93;;
44764;SDS011;30484;52.382;5.260;2023-07-30T00:50:07;29.00;;;4.32;;
44764;SDS011;30484;52.382;5.260;2023-07-30T00:52:37;25.67;;;4.68;;
44764;SDS011;30484;52.382;5.260;2023-07-30T00:55:07;27.05;;;5.03;;
44764;SDS011;30484;52.382;5.260;2023-07-30T00:57:38;36.72;;;5.25;;
44764;SDS011;30484;52.382;5.260;2023-07-30T01:00:09;39.25;;;4.72;;
44764;SDS011;30484;52.382;5.260;2023-07-30T01:02:38;40.38;;;4.78;;
44764;SDS011;30484;52.382;5.260;2023-07-30T01:05:07;32.35;;;5.53;;
44764;SDS011;30484;52.382;5.260;2023-07-30T01:07:36;41.55;;;5.90;;
44764;SDS011;30484;52.382;5.260;2023-07-30T01:10:04;28.80;;;5.40;;
44764;SDS011;30484;52.382;5.260;2023-07-30T01:12:36;35.53;;;5.13;;
44764;SDS011;30484;52.382;5.260;2023-07-30T01:15:06;29.50;;;5.00;;
44764;SDS011;30484;52.382;5.260;2023-07-30T01:17:36;32.55;;;5.22;;
44764;SDS011;30484;52.382;5.260;2023-07-30T01:20:05;39.70;;;5.22;;
44764;SDS011;30484;52.382;5.260;2023-07-30T01:22:36;37.22;;;5.45;;
44764;SDS011;30484;52.382;5.260;2023-07-30T01:25:05;36.83;;;5.60;;
44764;SDS011;30484;52.382;5.260;2023-07-30T01:27:36;32.50;;;5.25;;
44764;SDS011;30484;52.382;5.260;2023-07-30T01:30:14;35.35;;;6.03;;
44764;SDS011;30484;52.382;5.260;2023-07-30T01:32:49;43.50;;;5.95;;
44764;SDS011;30484;52.382;5.260;2023-07-30T01:35:20;31.80;;;5.47;;
44764;SDS011;30484;52.382;5.260;2023-07-30T01:37:54;37.63;;;5.45;;
44764;SDS011;30484;52.382;5.260;2023-07-30T01:40:24;39.03;;;5.03;;
44764;SDS011;30484;52.382;5.260;2023-07-30T01:42:52;31.83;;;5.55;;
44764;SDS011;30484;52.382;5.260;2023-07-30T01:45:21;34.92;;;6.45;;
44764;SDS011;30484;52.382;5.260;2023-07-30T01:47:49;31.42;;;4.40;;
44764;SDS011;30484;52.382;5.260;2023-07-30T01:50:18;41.28;;;5.18;;
44764;SDS011;30484;52.382;5.260;2023-07-30T01:52:46;30.55;;;5.63;;
44764;SDS011;30484;52.382;5.260;2023-07-30T01:55:16;28.88;;;4.63;;
44764;SDS011;30484;52.382;5.260;2023-07-30T01:57:45;30.08;;;5.28;;
44764;SDS011;30484;52.382;5.260;2023-07-30T02:00:14;30.35;;;4.95;;
44764;SDS011;30484;52.382;5.260;2023-07-30T02:02:42;27.73;;;5.05;;
44764;SDS011;30484;52.382;5.260;2023-07-30T02:05:11;24.10;;;4.60;;
44764;SDS011;30484;52.382;5.260;2023-07-30T02:07:40;28.20;;;4.90;;
44764;SDS011;30484;52.382;5.260;2023-07-30T02:10:08;26.70;;;4.88;;
44764;SDS011;30484;52.382;5.260;2023-07-30T02:12:38;22.33;;;4.43;;
44764;SDS011;30484;52.382;5.260;2023-07-30T02:15:07;36.08;;;4.47;;
44764;SDS011;30484;52.382;5.260;2023-07-30T02:17:38;24.67;;;4.85;;
44764;SDS011;30484;52.382;5.260;2023-07-30T02:20:07;29.33;;;5.70;;
44764;SDS011;30484;52.382;5.260;2023-07-30T02:22:37;37.60;;;6.22;;
44764;SDS011;30484;52.382;5.260;2023-07-30T02:25:05;33.65;;;7.05;;
44764;SDS011;30484;52.382;5.260;2023-07-30T02:27:34;35.42;;;6.45;;
44764;SDS011;30484;52.382;5.260;2023-07-30T02:30:05;25.02;;;5.22;;
44764;SDS011;30484;52.382;5.260;2023-07-30T02:32:34;31.73;;;5.93;;
44764;SDS011;30484;52.382;5.260;2023-07-30T02:35:03;34.70;;;5.85;;
44764;SDS011;30484;52.382;5.260;2023-07-30T02:37:32;30.13;;;5.18;;
44764;SDS011;30484;52.382;5.260;2023-07-30T02:40:01;29.08;;;5.55;;
44764;SDS011;30484;52.382;5.260;2023-07-30T02:42:31;32.65;;;5.55;;
44764;SDS011;30484;52.382;5.260;2023-07-30T02:44:59;33.55;;;5.38;;
44764;SDS011;30484;52.382;5.260;2023-07-30T02:47:29;32.42;;;5.25;;
44764;SDS011;30484;52.382;5.260;2023-07-30T02:49:58;31.98;;;5.40;;
44764;SDS011;30484;52.382;5.260;2023-07-30T02:52:26;34.08;;;5.40;;
44764;SDS011;30484;52.382;5.260;2023-07-30T02:54:54;39.58;;;5.38;;
44764;SDS011;30484;52.382;5.260;2023-07-30T02:57:23;37.20;;;5.80;;
44764;SDS011;30484;52.382;5.260;2023-07-30T02:59:51;29.38;;;5.32;;
44764;SDS011;30484;52.382;5.260;2023-07-30T03:02:19;34.75;;;5.05;;
44764;SDS011;30484;52.382;5.260;2023-07-30T03:04:49;30.88;;;5.25;;
44764;SDS011;30484;52.382;5.260;2023-07-30T03:07:21;32.85;;;5.20;;
44764;SDS011;30484;52.382;5.260;2023-07-30T03:09:50;35.58;;;4.88;;
44764;SDS011;30484;52.382;5.260;2023-07-30T03:12:18;40.55;;;5.70;;
44764;SDS011;30484;52.382;5.260;2023-07-30T03:14:47;33.95;;;5.95;;
44764;SDS011;30484;52.382;5.260;2023-07-30T03:17:15;37.83;;;5.60;;
44764;SDS011;30484;52.382;5.260;2023-07-30T03:19:43;44.67;;;5.70;;
44764;SDS011;30484;52.382;5.260;2023-07-30T03:22:13;32.22;;;5.30;;
44764;SDS011;30484;52.382;5.260;2023-07-30T03:24:42;28.90;;;5.50;;
44764;SDS011;30484;52.382;5.260;2023-07-30T03:27:13;35.00;;;5.63;;
44764;SDS011;30484;52.382;5.260;2023-07-30T03:29:41;35.58;;;5.47;;
44764;SDS011;30484;52.382;5.260;2023-07-30T03:32:10;32.88;;;5.13;;
44764;SDS011;30484;52.382;5.260;2023-07-30T03:34:38;31.27;;;5.38;;
44764;SDS011;30484;52.382;5.260;2023-07-30T03:37:06;32.70;;;5.40;;
44764;SDS011;30484;52.382;5.260;2023-07-30T03:39:36;33.83;;;5.53;;
44764;SDS011;30484;52.382;5.260;2023-07-30T03:42:05;37.03;;;5.20;;
44764;SDS011;30484;52.382;5.260;2023-07-30T03:44:34;34.17;;;5.75;;
44764;SDS011;30484;52.382;5.260;2023-07-30T03:47:02;35.50;;;5.97;;
44764;SDS011;30484;52.382;5.260;2023-07-30T03:49:31;35.22;;;5.35;;
44764;SDS011;30484;52.382;5.260;2023-07-30T03:51:59;36.28;;;5.32;;
44764;SDS011;30484;52.382;5.260;2023-07-30T03:54:51;29.30;;;5.18;;
44764;SDS011;30484;52.382;5.260;2023-07-30T03:57:19;40.95;;;5.50;;
44764;SDS011;30484;52.382;5.260;2023-07-30T03:59:59;31.50;;;5.78;;
44764;SDS011;30484;52.382;5.260;2023-07-30T04:02:29;29.52;;;5.38;;
44764;SDS011;30484;52.382;5.260;2023-07-30T04:04:58;36.00;;;5.32;;
44764;SDS011;30484;52.382;5.260;2023-07-30T04:07:26;36.33;;;5.18;;
44764;SDS011;30484;52.382;5.260;2023-07-30T04:09:56;41.92;;;5.82;;
44764;SDS011;30484;52.382;5.260;2023-07-30T04:12:28;39.33;;;5.53;;
44764;SDS011;30484;52.382;5.260;2023-07-30T04:14:56;23.73;;;5.25;;
44764;SDS011;30484;52.382;5.260;2023-07-30T04:17:24;35.58;;;5.72;;
44764;SDS011;30484;52.382;5.260;2023-07-30T04:19:53;26.50;;;4.80;;
44764;SDS011;30484;52.382;5.260;2023-07-30T04:22:21;35.58;;;5.57;;
44764;SDS011;30484;52.382;5.260;2023-07-30T04:24:50;36.08;;;5.53;;
44764;SDS011;30484;52.382;5.260;2023-07-30T04:27:20;32.08;;;4.72;;
44764;SDS011;30484;52.382;5.260;2023-07-30T04:29:48;40.42;;;5.55;;
44764;SDS011;30484;52.382;5.260;2023-07-30T04:32:17;35.03;;;5.28;;
44764;SDS011;30484;52.382;5.260;2023-07-30T04:34:46;32.70;;;5.47;;
44764;SDS011;30484;52.382;5.260;2023-07-30T04:37:14;33.70;;;5.55;;
44764;SDS011;30484;52.382;5.260;2023-07-30T04:39:42;39.50;;;5.78;;
44764;SDS011;30484;52.382;5.260;2023-07-30T04:42:11;23.17;;;5.30;;
44764;SDS011;30484;52.382;5.260;2023-07-30T04:44:43;36.95;;;5.35;;
44764;SDS011;30484;52.382;5.260;2023-07-30T04:47:12;46.58;;;5.30;;
44764;SDS011;30484;52.382;5.260;2023-07-30T04:49:40;34.63;;;5.30;;
44764;SDS011;30484;52.382;5.260;2023-07-30T04:52:09;28.15;;;5.05;;
44764;SDS011;30484;52.382;5.260;2023-07-30T04:54:38;41.35;;;5.10;;
44764;SDS011;30484;52.382;5.260;2023-07-30T04:57:06;34.63;;;5.18;;
44764;SDS011;30484;52.382;5.260;2023-07-30T04:59:35;26.08;;;4.38;;
44764;SDS011;30484;52.382;5.260;2023-07-30T05:02:05;29.85;;;4.85;;
44764;SDS011;30484;52.382;5.260;2023-07-30T05:04:34;36.58;;;5.80;;
44764;SDS011;30484;52.382;5.260;2023-07-30T05:07:03;30.10;;;5.13;;
44764;SDS011;30484;52.382;5.260;2023-07-30T05:09:32;27.20;;;5.30;;
44764;SDS011;30484;52.382;5.260;2023-07-30T05:12:00;34.35;;;5.43;;
44764;SDS011;30484;52.382;5.260;2023-07-30T05:14:29;22.48;;;4.43;;
44764;SDS011;30484;52.382;5.260;2023-07-30T05:16:57;28.63;;;4.70;;
44764;SDS011;30484;52.382;5.260;2023-07-30T05:19:28;25.58;;;4.80;;
44764;SDS011;30484;52.382;5.260;2023-07-30T05:21:56;29.35;;;4.65;;
44764;SDS011;30484;52.382;5.260;2023-07-30T05:24:40;25.27;;;5.65;;
44764;SDS011;30484;52.382;5.260;2023-07-30T05:27:09;34.70;;;5.40;;
44764;SDS011;30484;52.382;5.260;2023-07-30T05:29:37;29.88;;;5.00;;
44764;SDS011;30484;52.382;5.260;2023-07-30T05:32:06;31.88;;;5.20;;
44764;SDS011;30484;52.382;5.260;2023-07-30T05:34:37;31.33;;;4.53;;
44764;SDS011;30484;52.382;5.260;2023-07-30T05:37:05;29.42;;;4.55;;
44764;SDS011;30484;52.382;5.260;2023-07-30T05:39:36;27.83;;;4.97;;
44764;SDS011;30484;52.382;5.260;2023-07-30T05:42:04;28.55;;;4.70;;
44764;SDS011;30484;52.382;5.260;2023-07-30T05:44:33;23.20;;;4.10;;
44764;SDS011;30484;52.382;5.260;2023-07-30T05:47:01;25.73;;;4.50;;
44764;SDS011;30484;52.382;5.260;2023-07-30T05:49:30;25.10;;;4.63;;
44764;SDS011;30484;52.382;5.260;2023-07-30T05:52:01;25.55;;;3.72;;
44764;SDS011;30484;52.382;5.260;2023-07-30T05:54:38;25.45;;;4.30;;
44764;SDS011;30484;52.382;5.260;2023-07-30T05:57:06;20.48;;;3.78;;
44764;SDS011;30484;52.382;5.260;2023-07-30T05:59:38;22.15;;;4.25;;
44764;SDS011;30484;52.382;5.260;2023-07-30T06:02:06;28.23;;;4.55;;
44764;SDS011;30484;52.382;5.260;2023-07-30T06:04:35;25.23;;;4.57;;
44764;SDS011;30484;52.382;5.260;2023-07-30T06:07:07;32.42;;;4.63;;
44764;SDS011;30484;52.382;5.260;2023-07-30T06:09:37;24.88;;;4.57;;
44764;SDS011;30484;52.382;5.260;2023-07-30T06:12:05;28.13;;;4.32;;
44764;SDS011;30484;52.382;5.260;2023-07-30T06:14:35;28.98;;;4.47;;
44764;SDS011;30484;52.382;5.260;2023-07-30T06:17:03;29.63;;;4.30;;
44764;SDS011;30484;52.382;5.260;2023-07-30T06:19:36;25.13;;;4.60;;
44764;SDS011;30484;52.382;5.260;2023-07-30T06:22:04;30.10;;;5.20;;
44764;SDS011;30484;52.382;5.260;2023-07-30T06:24:37;29.83;;;4.68;;
44764;SDS011;30484;52.382;5.260;2023-07-30T06:27:05;33.50;;;5.38;;
44764;SDS011;30484;52.382;5.260;2023-07-30T06:29:35;27.02;;;5.20;;
44764;SDS011;30484;52.382;5.260;2023-07-30T06:32:04;31.17;;;5.13;;
44764;SDS011;30484;52.382;5.260;2023-07-30T06:34:39;27.90;;;5.43;;
44764;SDS011;30484;52.382;5.260;2023-07-30T06:37:07;29.52;;;5.03;;
44764;SDS011;30484;52.382;5.260;2023-07-30T06:39:38;32.15;;;5.85;;
44764;SDS011;30484;52.382;5.260;2023-07-30T06:42:09;39.33;;;5.95;;
44764;SDS011;30484;52.382;5.260;2023-07-30T06:44:37;39.58;;;5.90;;
44764;SDS011;30484;52.382;5.260;2023-07-30T06:47:06;32.70;;;5.97;;
44764;SDS011;30484;52.382;5.260;2023-07-30T06:49:34;32.63;;;5.30;;
44764;SDS011;30484;52.382;5.260;2023-07-30T06:52:07;37.53;;;5.72;;
44764;SDS011;30484;52.382;5.260;2023-07-30T06:54:35;32.63;;;5.40;;
44764;SDS011;30484;52.382;5.260;2023-07-30T06:57:05;31.25;;;5.03;;
44764;SDS011;30484;52.382;5.260;2023-07-30T06:59:34;32.85;;;5.60;;
44764;SDS011;30484;52.382;5.260;2023-07-30T07:02:05;27.52;;;4.72;;
44764;SDS011;30484;52.382;5.260;2023-07-30T07:04:34;35.95;;;5.22;;
44764;SDS011;30484;52.382;5.260;2023-07-30T07:07:02;23.42;;;4.85;;
44764;SDS011;30484;52.382;5.260;2023-07-30T07:09:31;28.02;;;4.35;;
44764;SDS011;30484;52.382;5.260;2023-07-30T07:12:05;30.60;;;4.30;;
44764;SDS011;30484;52.382;5.260;2023-07-30T07:14:34;26.25;;;5.10;;
44764;SDS011;30484;52.382;5.260;2023-07-30T07:17:03;26.95;;;4.50;;
44764;SDS011;30484;52.382;5.260;2023-07-30T07:19:31;27.80;;;4.78;;
44764;SDS011;30484;52.382;5.260;2023-07-30T07:22:03;22.75;;;4.07;;
44764;SDS011;30484;52.382;5.260;2023-07-30T07:24:32;25.45;;;4.68;;
44764;SDS011;30484;52.382;5.260;2023-07-30T07:27:00;28.30;;;4.60;;
44764;SDS011;30484;52.382;5.260;2023-07-30T07:29:30;34.85;;;4.75;;
44764;SDS011;30484;52.382;5.260;2023-07-30T07:31:58;28.33;;;4.45;;
44764;SDS011;30484;52.382;5.260;2023-07-30T07:34:26;34.42;;;5.85;;
44764;SDS011;30484;52.382;5.260;2023-07-30T07:36:55;32.28;;;5.30;;
44764;SDS011;30484;52.382;5.260;2023-07-30T07:39:28;38.58;;;5.25;;
44764;SDS011;30484;52.382;5.260;2023-07-30T07:41:57;28.15;;;4.53;;
44764;SDS011;30484;52.382;5.260;2023-07-30T07:44:25;35.03;;;5.45;;
44764;SDS011;30484;52.382;5.260;2023-07-30T07:47:15;32.47;;;5.60;;
44764;SDS011;30484;52.382;5.260;2023-07-30T07:49:46;30.00;;;5.03;;
44764;SDS011;30484;52.382;5.260;2023-07-30T07:52:28;32.25;;;4.90;;
44764;SDS011;30484;52.382;5.260;2023-07-30T07:54:56;27.52;;;4.57;;
44764;SDS011;30484;52.382;5.260;2023-07-30T07:57:25;29.42;;;4.75;;
44764;SDS011;30484;52.382;5.260;2023-07-30T07:59:57;26.88;;;4.38;;
44764;SDS011;30484;52.382;5.260;2023-07-30T08:02:25;27.90;;;5.18;;
44764;SDS011;30484;52.382;5.260;2023-07-30T08:04:54;27.00;;;4.97;;
44764;SDS011;30484;52.382;5.260;2023-07-30T08:07:23;22.98;;;3.65;;
44764;SDS011;30484;52.382;5.260;2023-07-30T08:09:52;28.02;;;4.10;;
44764;SDS011;30484;52.382;5.260;2023-07-30T08:12:21;31.90;;;4.68;;
44764;SDS011;30484;52.382;5.260;2023-07-30T08:14:52;24.10;;;4.05;;
44764;SDS011;30484;52.382;5.260;2023-07-30T08:17:24;27.75;;;4.28;;
44764;SDS011;30484;52.382;5.260;2023-07-30T08:19:52;21.02;;;4.03;;
44764;SDS011;30484;52.382;5.260;2023-07-30T08:22:21;22.02;;;3.92;;
44764;SDS011;30484;52.382;5.260;2023-07-30T08:24:51;25.10;;;4.97;;
44764;SDS011;30484;52.382;5.260;2023-07-30T08:27:23;22.38;;;3.70;;
44764;SDS011;30484;52.382;5.260;2023-07-30T08:29:52;21.42;;;3.90;;
44764;SDS011;30484;52.382;5.260;2023-07-30T08:32:21;18.88;;;3.78;;
44764;SDS011;30484;52.382;5.260;2023-07-30T08:34:51;18.30;;;2.92;;
44764;SDS011;30484;52.382;5.260;2023-07-30T08:37:19;14.27;;;2.88;;
44764;SDS011;30484;52.382;5.260;2023-07-30T08:39:48;19.65;;;3.05;;
44764;SDS011;30484;52.382;5.260;2023-07-30T08:42:16;15.75;;;2.45;;
44764;SDS011;30484;52.382;5.260;2023-07-30T08:44:45;11.50;;;2.47;;
44764;SDS011;30484;52.382;5.260;2023-07-30T08:47:14;15.07;;;2.60;;
44764;SDS011;30484;52.382;5.260;2023-07-30T08:49:43;17.42;;;2.45;;
44764;SDS011;30484;52.382;5.260;2023-07-30T08:52:13;17.83;;;2.97;;
44764;SDS011;30484;52.382;5.260;2023-07-30T08:54:45;11.52;;;2.15;;
44764;SDS011;30484;52.382;5.260;2023-07-30T08:57:18;12.27;;;2.28;;
44764;SDS011;30484;52.382;5.260;2023-07-30T08:59:49;12.02;;;2.53;;
44764;SDS011;30484;52.382;5.260;2023-07-30T09:02:30;12.38;;;2.60;;
44764;SDS011;30484;52.382;5.260;2023-07-30T09:05:05;12.00;;;2.72;;
44764;SDS011;30484;52.382;5.260;2023-07-30T09:07:40;19.92;;;3.03;;
44764;SDS011;30484;52.382;5.260;2023-07-30T09:10:09;12.35;;;2.10;;
44764;SDS011;30484;52.382;5.260;2023-07-30T09:12:37;13.73;;;2.65;;
44764;SDS011;30484;52.382;5.260;2023-07-30T09:15:12;11.27;;;2.35;;
44764;SDS011;30484;52.382;5.260;2023-07-30T09:17:41;18.67;;;2.97;;
44764;SDS011;30484;52.382;5.260;2023-07-30T09:20:10;13.98;;;2.92;;
44764;SDS011;30484;52.382;5.260;2023-07-30T09:22:40;15.45;;;2.90;;
44764;SDS011;30484;52.382;5.260;2023-07-30T09:25:13;13.18;;;2.92;;
44764;SDS011;30484;52.382;5.260;2023-07-30T09:27:42;13.02;;;2.72;;
44764;SDS011;30484;52.382;5.260;2023-07-30T09:30:14;14.43;;;2.55;;
44764;SDS011;30484;52.382;5.260;2023-07-30T09:32:50;15.27;;;2.55;;
44764;SDS011;30484;52.382;5.260;2023-07-30T09:35:24;15.07;;;2.70;;
44764;SDS011;30484;52.382;5.260;2023-07-30T09:37:59;12.75;;;2.55;;
44764;SDS011;30484;52.382;5.260;2023-07-30T09:40:31;22.20;;;3.47;;
44764;SDS011;30484;52.382;5.260;2023-07-30T09:43:01;11.95;;;2.60;;
44764;SDS011;30484;52.382;5.260;2023-07-30T09:45:33;17.40;;;3.20;;
44764;SDS011;30484;52.382;5.260;2023-07-30T09:48:05;14.30;;;2.53;;
44764;SDS011;30484;52.382;5.260;2023-07-30T09:50:35;13.45;;;2.42;;
44764;SDS011;30484;52.382;5.260;2023-07-30T09:53:15;13.65;;;2.83;;
44764;SDS011;30484;52.382;5.260;2023-07-30T09:55:50;26.10;;;3.47;;
44764;SDS011;30484;52.382;5.260;2023-07-30T09:58:18;17.42;;;3.60;;
44764;SDS011;30484;52.382;5.260;2023-07-30T10:00:47;14.13;;;3.38;;
44764;SDS011;30484;52.382;5.260;2023-07-30T10:03:17;16.48;;;3.17;;
44764;SDS011;30484;52.382;5.260;2023-07-30T10:05:46;11.13;;;2.85;;
44764;SDS011;30484;52.382;5.260;2023-07-30T10:08:21;14.23;;;2.60;;
44764;SDS011;30484;52.382;5.260;2023-07-30T10:10:54;18.35;;;2.65;;
44764;SDS011;30484;52.382;5.260;2023-07-30T10:13:24;14.60;;;2.65;;
44764;SDS011;30484;52.382;5.260;2023-07-30T10:15:58;14.68;;;2.88;;
44764;SDS011;30484;52.382;5.260;2023-07-30T10:18:32;11.20;;;2.47;;
44764;SDS011;30484;52.382;5.260;2023-07-30T10:21:07;16.70;;;2.75;;
44764;SDS011;30484;52.382;5.260;2023-07-30T10:23:44;14.90;;;2.58;;
44764;SDS011;30484;52.382;5.260;2023-07-30T10:26:14;16.23;;;3.47;;
44764;SDS011;30484;52.382;5.260;2023-07-30T10:28:43;18.90;;;2.92;;
44764;SDS011;30484;52.382;5.260;2023-07-30T10:31:12;18.20;;;2.65;;
44764;SDS011;30484;52.382;5.260;2023-07-30T10:33:44;13.30;;;2.65;;
44764;SDS011;30484;52.382;5.260;2023-07-30T10:36:16;13.60;;;2.55;;
44764;SDS011;30484;52.382;5.260;2023-07-30T10:38:47;11.32;;;2.25;;
44764;SDS011;30484;52.382;5.260;2023-07-30T10:41:15;12.23;;;2.47;;
44764;SDS011;30484;52.382;5.260;2023-07-30T10:43:47;11.95;;;2.17;;
44764;SDS011;30484;52.382;5.260;2023-07-30T10:46:18;10.18;;;2.20;;
44764;SDS011;30484;52.382;5.260;2023-07-30T10:48:47;12.07;;;2.13;;
44764;SDS011;30484;52.382;5.260;2023-07-30T10:51:17;12.13;;;2.08;;
44764;SDS011;30484;52.382;5.260;2023-07-30T10:53:50;12.23;;;2.03;;
44764;SDS011;30484;52.382;5.260;2023-07-30T10:56:25;10.73;;;2.15;;
44764;SDS011;30484;52.382;5.260;2023-07-30T10:58:53;10.15;;;2.15;;
44764;SDS011;30484;52.382;5.260;2023-07-30T11:01:26;9.98;;;2.35;;
44764;SDS011;30484;52.382;5.260;2023-07-30T11:03:54;15.73;;;3.30;;
44764;SDS011;30484;52.382;5.260;2023-07-30T11:06:23;9.77;;;2.42;;
44764;SDS011;30484;52.382;5.260;2023-07-30T11:08:55;10.15;;;2.00;;
44764;SDS011;30484;52.382;5.260;2023-07-30T11:11:23;8.95;;;2.30;;
44764;SDS011;30484;52.382;5.260;2023-07-30T11:13:53;9.10;;;2.28;;
44764;SDS011;30484;52.382;5.260;2023-07-30T11:16:21;13.85;;;1.95;;
44764;SDS011;30484;52.382;5.260;2023-07-30T11:18:51;12.30;;;2.42;;
44764;SDS011;30484;52.382;5.260;2023-07-30T11:21:20;13.45;;;2.55;;
44764;SDS011;30484;52.382;5.260;2023-07-30T11:23:50;10.18;;;2.22;;
44764;SDS011;30484;52.382;5.260;2023-07-30T11:26:21;9.30;;;2.33;;
44764;SDS011;30484;52.382;5.260;2023-07-30T11:28:53;15.85;;;2.60;;
44764;SDS011;30484;52.382;5.260;2023-07-30T11:31:22;11.73;;;2.35;;
44764;SDS011;30484;52.382;5.260;2023-07-30T11:33:53;10.55;;;2.40;;
44764;SDS011;30484;52.382;5.260;2023-07-30T11:36:23;9.98;;;1.95;;
44764;SDS011;30484;52.382;5.260;2023-07-30T11:38:53;12.13;;;2.25;;
44764;SDS011;30484;52.382;5.260;2023-07-30T11:41:23;15.00;;;2.80;;
44764;SDS011;30484;52.382;5.260;2023-07-30T11:43:53;11.30;;;1.88;;
44764;SDS011;30484;52.382;5.260;2023-07-30T11:46:23;9.70;;;1.90;;
44764;SDS011;30484;52.382;5.260;2023-07-30T11:48:52;10.13;;;1.95;;
44764;SDS011;30484;52.382;5.260;2023-07-30T11:51:37;10.27;;;2.35;;
44764;SDS011;30484;52.382;5.260;2023-07-30T11:54:07;10.50;;;2.10;;
44764;SDS011;30484;52.382;5.260;2023-07-30T11:56:53;11.88;;;2.38;;
44764;SDS011;30484;52.382;5.260;2023-07-30T12:01:50;9.82;;;2.17;;
44764;SDS011;30484;52.382;5.260;2023-07-30T12:04:19;8.98;;;2.17;;
44764;SDS011;30484;52.382;5.260;2023-07-30T12:06:48;9.18;;;2.03;;
44764;SDS011;30484;52.382;5.260;2023-07-30T12:09:18;11.15;;;1.80;;
44764;SDS011;30484;52.382;5.260;2023-07-30T12:11:51;8.30;;;1.70;;
44764;SDS011;30484;52.382;5.260;2023-07-30T12:14:21;11.25;;;1.98;;
44764;SDS011;30484;52.382;5.260;2023-07-30T12:16:56;14.30;;;1.98;;
44764;SDS011;30484;52.382;5.260;2023-07-30T12:19:25;10.18;;;2.22;;
44764;SDS011;30484;52.382;5.260;2023-07-30T12:21:53;7.60;;;1.58;;
44764;SDS011;30484;52.382;5.260;2023-07-30T12:24:21;8.82;;;1.77;;
44764;SDS011;30484;52.382;5.260;2023-07-30T12:26:51;8.73;;;1.90;;
44764;SDS011;30484;52.382;5.260;2023-07-30T12:29:21;10.57;;;1.92;;
44764;SDS011;30484;52.382;5.260;2023-07-30T12:31:49;8.32;;;2.03;;
44764;SDS011;30484;52.382;5.260;2023-07-30T12:34:23;8.27;;;2.10;;
44764;SDS011;30484;52.382;5.260;2023-07-30T12:36:52;8.65;;;2.10;;
44764;SDS011;30484;52.382;5.260;2023-07-30T12:39:21;8.50;;;2.03;;
44764;SDS011;30484;52.382;5.260;2023-07-30T12:41:49;8.73;;;2.00;;
44764;SDS011;30484;52.382;5.260;2023-07-30T12:44:21;5.68;;;1.35;;
44764;SDS011;30484;52.382;5.260;2023-07-30T12:46:49;8.38;;;1.50;;
44764;SDS011;30484;52.382;5.260;2023-07-30T12:49:18;8.77;;;1.77;;
44764;SDS011;30484;52.382;5.260;2023-07-30T12:51:46;8.70;;;2.22;;
44764;SDS011;30484;52.382;5.260;2023-07-30T12:54:15;6.68;;;1.95;;
44764;SDS011;30484;52.382;5.260;2023-07-30T12:56:43;8.18;;;2.50;;
44764;SDS011;30484;52.382;5.260;2023-07-30T12:59:14;7.55;;;2.58;;
44764;SDS011;30484;52.382;5.260;2023-07-30T13:01:42;15.52;;;2.90;;
44764;SDS011;30484;52.382;5.260;2023-07-30T13:04:13;14.15;;;7.53;;
44764;SDS011;30484;52.382;5.260;2023-07-30T13:06:43;54.15;;;29.02;;
44764;SDS011;30484;52.382;5.260;2023-07-30T13:09:11;34.60;;;20.60;;
44764;SDS011;30484;52.382;5.260;2023-07-30T13:11:40;10.15;;;2.80;;
44764;SDS011;30484;52.382;5.260;2023-07-30T13:14:08;6.50;;;2.90;;
44764;SDS011;30484;52.382;5.260;2023-07-30T13:16:37;11.98;;;4.55;;
44764;SDS011;30484;52.382;5.260;2023-07-30T13:19:06;11.10;;;3.10;;
44764;SDS011;30484;52.382;5.260;2023-07-30T13:21:34;12.00;;;4.97;;
44764;SDS011;30484;52.382;5.260;2023-07-30T13:24:03;8.30;;;1.85;;
44764;SDS011;30484;52.382;5.260;2023-07-30T13:26:32;6.82;;;1.45;;
44764;SDS011;30484;52.382;5.260;2023-07-30T13:29:04;7.97;;;1.52;;
44764;SDS011;30484;52.382;5.260;2023-07-30T13:31:33;5.05;;;1.60;;
44764;SDS011;30484;52.382;5.260;2023-07-30T13:34:03;6.90;;;2.50;;
44764;SDS011;30484;52.382;5.260;2023-07-30T13:36:31;10.13;;;2.70;;
44764;SDS011;30484;52.382;5.260;2023-07-30T13:38:59;10.48;;;3.00;;
44764;SDS011;30484;52.382;5.260;2023-07-30T13:41:28;6.90;;;2.47;;
44764;SDS011;30484;52.382;5.260;2023-07-30T13:43:56;7.95;;;1.80;;
44764;SDS011;30484;52.382;5.260;2023-07-30T13:46:24;5.80;;;1.98;;
44764;SDS011;30484;52.382;5.260;2023-07-30T13:48:52;19.00;;;7.32;;
44764;SDS011;30484;52.382;5.260;2023-07-30T13:51:22;21.15;;;5.70;;
44764;SDS011;30484;52.382;5.260;2023-07-30T13:53:50;16.42;;;5.53;;
44764;SDS011;30484;52.382;5.260;2023-07-30T13:56:19;19.50;;;7.65;;
44764;SDS011;30484;52.382;5.260;2023-07-30T13:58:47;9.57;;;3.55;;
44764;SDS011;30484;52.382;5.260;2023-07-30T14:01:16;15.57;;;5.78;;
44764;SDS011;30484;52.382;5.260;2023-07-30T14:03:44;9.00;;;3.35;;
44764;SDS011;30484;52.382;5.260;2023-07-30T14:06:13;17.67;;;8.40;;
44764;SDS011;30484;52.382;5.260;2023-07-30T14:08:43;10.68;;;3.60;;
44764;SDS011;30484;52.382;5.260;2023-07-30T14:11:12;10.95;;;4.32;;
44764;SDS011;30484;52.382;5.260;2023-07-30T14:13:41;18.60;;;6.10;;
44764;SDS011;30484;52.382;5.260;2023-07-30T14:16:09;16.52;;;5.25;;
44764;SDS011;30484;52.382;5.260;2023-07-30T14:18:38;8.75;;;2.72;;
44764;SDS011;30484;52.382;5.260;2023-07-30T14:21:06;11.32;;;3.92;;
44764;SDS011;30484;52.382;5.260;2023-07-30T14:23:34;10.32;;;3.20;;
44764;SDS011;30484;52.382;5.260;2023-07-30T14:26:04;14.32;;;4.80;;
44764;SDS011;30484;52.382;5.260;2023-07-30T14:28:33;12.07;;;2.92;;
44764;SDS011;30484;52.382;5.260;2023-07-30T14:31:01;16.85;;;8.30;;
44764;SDS011;30484;52.382;5.260;2023-07-30T14:33:30;11.88;;;2.88;;
44764;SDS011;30484;52.382;5.260;2023-07-30T14:35:59;14.00;;;2.90;;
44764;SDS011;30484;52.382;5.260;2023-07-30T14:38:27;13.35;;;3.88;;
44764;SDS011;30484;52.382;5.260;2023-07-30T14:40:57;14.27;;;6.18;;
44764;SDS011;30484;52.382;5.260;2023-07-30T14:43:27;11.93;;;3.33;;
44764;SDS011;30484;52.382;5.260;2023-07-30T14:45:56;28.13;;;10.77;;
44764;SDS011;30484;52.382;5.260;2023-07-30T14:48:25;19.38;;;4.50;;
44764;SDS011;30484;52.382;5.260;2023-07-30T14:50:54;21.67;;;5.00;;
44764;SDS011;30484;52.382;5.260;2023-07-30T14:53:23;12.55;;;2.95;;